Terminal Aerodrome Forecast
Issued by NWS

Home | Current Version | Previous Version | Graphics & Text | Print | Product List | Glossary On
Versions: 1 2 3 4 5 6 7 8 9 10 11 12 13 14 15 16 17
900
FTUS43 KBIS 011741
TAFDIK
TAF
KDIK 011741Z 0118/0218 27004KT 6SM BR SCT003 OVC018
     FM020300 00000KT P6SM OVC008
     FM021600 27004KT P6SM VCSH OVC008=

USA.gov is the U.S. government's official web portal to all federal, state and local government web resources and services.